NORTHEAST SUFFOLK  -  Rip Current Statement Rip Current Statement        NORTHERN NASSAU  -  Rip Current Statement Rip Current Statement        NORTHERN QUEENS  -  Rip Current Statement Rip Current Statement        NORTHWEST SUFFOLK  -  Rip Current Statement Rip Current Statement        SOUTHEAST SUFFOLK  -  Rip Current Statement Rip Current Statement        SOUTHERN NASSAU  -  Rip Current Statement Rip Current Statement        SOUTHERN QUEENS  -  Rip Current Statement Rip Current Statement        SOUTHWEST SUFFOLK  -  Rip Current Statement Rip Current Statement      

Active alerts

Northern Queens
  Details for Northern Queens Rip Current Statement
Southern Queens
  Details for Southern Queens Rip Current Statement
Northern Nassau
  Details for Northern Nassau Rip Current Statement
Southern Nassau
  Details for Southern Nassau Rip Current Statement
Northwest Suffolk
  Details for Northwest Suffolk Rip Current Statement
Southwest Suffolk
  Details for Southwest Suffolk Rip Current Statement
Northeast Suffolk
  Details for Northeast Suffolk Rip Current Statement
Southeast Suffolk
  Details for Southeast Suffolk Rip Current Statement


WXM80 ListenWXM80 Stop

You find our weather info also at:

UK Metoffice

WeatherCloud

Weather Underground

Northeastern Weather Network

AWEKAS

Citizen Weather Observer Program (CWOP)

HAMweather, WeatherForYou, PWS Weather


Weather Underground History page Text

Daily Summary for August 27, 2016 Units:  English    Metric   Both
« Previous Day
Next Day »
Daily Weekly Monthly Yearly Custom
  High: Low: Average:
Temperature: 88.4 °F 70.9 °F 78.6 °F
Dew Point: 71.4 °F 60.4 °F 65.6 °F
Humidity: 84 % 43 % 66 %
Wind Speed: 5.7 mph 0.0 mph 1.2 mph
Wind Gust: 10.4 mph - -
Wind:- - East
Pressure: 30.19 in 30.04 in -
Precipitation: 0.00 in    
Historical Graphs
 
 
Tabular Data for August 27, 2016
Time Temperature Dew Point Pressure Wind Wind Speed Wind Gust Humidity Rainfall Rate (Hourly)
00:04 76.8 °F 68.7 °F 30.04 in NNW 0.6 mph 2.3 mph 76 % 0.00 in
00:09 76.7 °F 68.6 °F 30.04 in NNW 1.1 mph 3.5 mph 76 % 0.00 in
00:14 76.6 °F 68.5 °F 30.04 in Calm     76 % 0.00 in
00:19 76.4 °F 68.3 °F 30.04 in Calm     76 % 0.00 in
00:24 76.3 °F 68.2 °F 30.04 in NNW 0.1 mph 1.0 mph 76 % 0.00 in
00:30 76.1 °F 67.6 °F 30.05 in Calm     75 % 0.00 in
00:35 76.0 °F 67.9 °F 30.04 in Calm   1.2 mph 76 % 0.00 in
00:40 75.8 °F 67.7 °F 30.05 in Calm     76 % 0.00 in
00:45 75.6 °F 67.5 °F 30.05 in Calm     76 % 0.00 in
00:50 75.4 °F 67.7 °F 30.05 in Calm     77 % 0.00 in
00:55 75.2 °F 67.5 °F 30.04 in NNE 1.9 mph 3.5 mph 77 % 0.00 in
01:00 74.8 °F 66.3 °F 30.05 in NNE 1.5 mph 3.5 mph 75 % 0.00 in
01:05 74.6 °F 65.8 °F 30.05 in North 1.9 mph 4.0 mph 74 % 0.00 in
01:10 74.4 °F 65.6 °F 30.05 in NNE 0.1 mph   74 % 0.00 in
01:15 74.2 °F 65.4 °F 30.04 in NNW 0.5 mph 3.5 mph 74 % 0.00 in
01:20 74.1 °F 65.3 °F 30.04 in Calm   2.0 mph 74 % 0.00 in
01:26 74.1 °F 65.3 °F 30.05 in Calm   1.0 mph 74 % 0.00 in
01:31 74.0 °F 65.2 °F 30.05 in Calm     74 % 0.00 in
01:36 74.0 °F 65.6 °F 30.05 in Calm   1.2 mph 75 % 0.00 in
01:40 73.9 °F 65.9 °F 30.05 in Calm   2.0 mph 76 % 0.00 in
01:45 73.8 °F 65.7 °F 30.06 in Calm     76 % 0.00 in
01:50 73.6 °F 65.6 °F 30.06 in Calm     76 % 0.00 in
01:56 73.4 °F 65.4 °F 30.06 in Calm     76 % 0.00 in
02:01 73.2 °F 65.6 °F 30.06 in Calm     77 % 0.00 in
02:06 72.9 °F 65.6 °F 30.06 in Calm     78 % 0.00 in
02:11 72.7 °F 65.4 °F 30.06 in North 0.4 mph 2.3 mph 78 % 0.00 in
02:16 72.5 °F 65.2 °F 30.06 in Calm     78 % 0.00 in
02:26 72.0 °F 64.8 °F 30.06 in NE 4.8 mph 6.9 mph 78 % 0.00 in
02:31 71.7 °F 64.5 °F 30.06 in Calm   1.2 mph 78 % 0.00 in
02:36 71.6 °F 64.4 °F 30.06 in Calm   1.2 mph 78 % 0.00 in
02:41 71.5 °F 64.6 °F 30.06 in North 2.6 mph 5.0 mph 79 % 0.00 in
02:46 71.5 °F 64.3 °F 30.06 in NNE 0.8 mph 4.6 mph 78 % 0.00 in
02:52 71.5 °F 64.3 °F 30.06 in North 0.7 mph 2.3 mph 78 % 0.00 in
02:57 71.5 °F 64.3 °F 30.06 in North 0.8 mph 2.3 mph 78 % 0.00 in
03:02 71.5 °F 64.3 °F 30.06 in North 0.8 mph 3.5 mph 78 % 0.00 in
03:07 71.5 °F 64.6 °F 30.06 in Calm     79 % 0.00 in
03:12 71.5 °F 64.6 °F 30.06 in NE 4.4 mph 6.9 mph 79 % 0.00 in
03:17 71.6 °F 64.7 °F 30.06 in NNE 3.0 mph 6.9 mph 79 % 0.00 in
03:22 71.7 °F 64.8 °F 30.06 in North 2.2 mph 4.6 mph 79 % 0.00 in
03:27 71.8 °F 64.9 °F 30.07 in NNE 3.8 mph 5.8 mph 79 % 0.00 in
03:32 71.9 °F 65.4 °F 30.07 in NNE 3.4 mph 4.6 mph 80 % 0.00 in
03:37 72.0 °F 65.5 °F 30.07 in NNE 3.3 mph 3.5 mph 80 % 0.00 in
03:43 72.1 °F 65.6 °F 30.07 in NNW 0.7 mph 2.3 mph 80 % 0.00 in
03:48 72.3 °F 65.8 °F 30.07 in NNE 4.2 mph 5.8 mph 80 % 0.00 in
03:53 72.4 °F 65.5 °F 30.07 in NNE 3.3 mph 6.0 mph 79 % 0.00 in
03:58 72.6 °F 65.7 °F 30.07 in NNE 2.2 mph 4.6 mph 79 % 0.00 in
04:03 72.6 °F 65.7 °F 30.07 in NNE 2.0 mph 4.6 mph 79 % 0.00 in
04:08 72.7 °F 66.5 °F 30.07 in NNE 0.2 mph   81 % 0.00 in
04:13 72.8 °F 66.6 °F 30.07 in NNE 0.6 mph 3.5 mph 81 % 0.00 in
04:18 72.8 °F 66.6 °F 30.07 in Calm   1.0 mph 81 % 0.00 in
04:23 72.8 °F 66.6 °F 30.07 in NNE 1.0 mph 3.5 mph 81 % 0.00 in
04:28 72.7 °F 66.5 °F 30.07 in NNE 0.4 mph 2.3 mph 81 % 0.00 in
04:34 72.7 °F 66.5 °F 30.07 in NE 1.4 mph 4.0 mph 81 % 0.00 in
04:39 72.6 °F 66.4 °F 30.07 in North 0.2 mph 2.3 mph 81 % 0.00 in
04:44 72.4 °F 65.9 °F 30.07 in NE 2.4 mph 5.8 mph 80 % 0.00 in
04:49 72.3 °F 65.8 °F 30.08 in North 2.2 mph 3.5 mph 80 % 0.00 in
04:54 72.3 °F 65.8 °F 30.08 in North 1.4 mph 3.5 mph 80 % 0.00 in
04:59 72.3 °F 65.8 °F 30.08 in East 1.1 mph 3.5 mph 80 % 0.00 in
05:04 72.2 °F 65.3 °F 30.08 in NNW 0.2 mph 3.5 mph 79 % 0.00 in
05:09 72.2 °F 65.3 °F 30.08 in NE 0.7 mph 2.3 mph 79 % 0.00 in
05:14 72.2 °F 65.3 °F 30.09 in NNW 0.4 mph 3.5 mph 79 % 0.00 in
05:19 72.2 °F 65.7 °F 30.09 in North 0.4 mph 3.5 mph 80 % 0.00 in
05:25 72.2 °F 65.7 °F 30.09 in NNE 0.8 mph 3.5 mph 80 % 0.00 in
05:30 72.1 °F 65.9 °F 30.10 in NNE 2.1 mph 4.6 mph 81 % 0.00 in
05:35 72.1 °F 65.9 °F 30.10 in NNE 4.5 mph 6.9 mph 81 % 0.00 in
05:40 72.0 °F 65.8 °F 30.10 in NNE 2.8 mph 3.5 mph 81 % 0.00 in
05:45 71.9 °F 65.8 °F 30.10 in NNW 3.2 mph 3.5 mph 81 % 0.00 in
05:50 71.9 °F 65.8 °F 30.11 in NNE 0.6 mph 2.0 mph 81 % 0.00 in
05:55 71.9 °F 65.8 °F 30.11 in NE 2.1 mph 5.8 mph 81 % 0.00 in
06:01 71.8 °F 65.7 °F 30.11 in NNE 5.0 mph 9.2 mph 81 % 0.00 in
06:06 71.7 °F 65.6 °F 30.11 in North 2.0 mph 8.1 mph 81 % 0.00 in
06:11 71.8 °F 65.7 °F 30.11 in NNE 3.1 mph 6.9 mph 81 % 0.00 in
06:16 71.9 °F 65.8 °F 30.11 in NNE 5.7 mph 8.1 mph 81 % 0.00 in
06:21 71.8 °F 65.7 °F 30.11 in North 4.9 mph 6.9 mph 81 % 0.00 in
06:26 71.8 °F 65.7 °F 30.11 in NE 2.7 mph 3.5 mph 81 % 0.00 in
06:36 71.8 °F 66.0 °F 30.12 in North 2.0 mph 3.5 mph 82 % 0.00 in
06:41 71.8 °F 65.7 °F 30.12 in NNE 4.1 mph 6.0 mph 81 % 0.00 in
06:47 71.8 °F 65.7 °F 30.13 in NNE 4.4 mph 8.1 mph 81 % 0.00 in
06:52 71.8 °F 65.7 °F 30.13 in ENE 4.7 mph 5.0 mph 81 % 0.00 in
06:57 71.8 °F 65.7 °F 30.13 in NNE 3.4 mph 9.2 mph 81 % 0.00 in
07:02 71.9 °F 66.1 °F 30.12 in NNE 2.1 mph 3.5 mph 82 % 0.00 in
07:07 72.0 °F 66.2 °F 30.12 in North 3.9 mph 5.8 mph 82 % 0.00 in
07:12 72.0 °F 66.2 °F 30.12 in NNE 5.2 mph 10.4 mph 82 % 0.00 in
07:17 72.0 °F 66.2 °F 30.13 in North 3.5 mph 6.0 mph 82 % 0.00 in
07:22 72.1 °F 66.3 °F 30.13 in ENE 1.2 mph 3.5 mph 82 % 0.00 in
07:27 72.2 °F 66.4 °F 30.13 in ENE 0.1 mph 1.2 mph 82 % 0.00 in
07:32 72.3 °F 66.8 °F 30.13 in ENE 1.3 mph 3.5 mph 83 % 0.00 in
07:38 72.4 °F 66.9 °F 30.13 in East 2.0 mph 5.8 mph 83 % 0.00 in
07:43 72.5 °F 66.7 °F 30.14 in NE 0.4 mph 2.0 mph 82 % 0.00 in
07:48 72.6 °F 66.8 °F 30.14 in ENE 0.7 mph 2.0 mph 82 % 0.00 in
07:53 72.7 °F 66.9 °F 30.14 in North 2.1 mph 4.0 mph 82 % 0.00 in
07:58 72.8 °F 66.6 °F 30.14 in NE 2.0 mph 4.6 mph 81 % 0.00 in
08:03 72.9 °F 66.7 °F 30.14 in NE 0.9 mph 3.5 mph 81 % 0.00 in
08:08 73.0 °F 66.8 °F 30.14 in NE 1.2 mph 2.3 mph 81 % 0.00 in
08:13 73.0 °F 66.8 °F 30.14 in NNE 2.0 mph 3.5 mph 81 % 0.00 in
08:18 73.1 °F 66.9 °F 30.15 in NE 2.1 mph 4.0 mph 81 % 0.00 in
08:23 73.3 °F 67.1 °F 30.14 in Calm   1.2 mph 81 % 0.00 in
08:29 73.4 °F 67.2 °F 30.14 in NE 0.2 mph 3.5 mph 81 % 0.00 in
08:34 73.5 °F 67.3 °F 30.14 in NE 0.3 mph 1.2 mph 81 % 0.00 in
08:39 73.7 °F 67.1 °F 30.14 in NE 2.1 mph 3.5 mph 80 % 0.00 in
08:44 73.9 °F 67.0 °F 30.14 in NE 2.4 mph 4.6 mph 79 % 0.00 in
08:49 74.1 °F 66.8 °F 30.15 in NE 1.3 mph 2.3 mph 78 % 0.00 in
08:54 74.3 °F 67.4 °F 30.15 in Calm   2.3 mph 79 % 0.00 in
08:59 74.6 °F 67.3 °F 30.15 in NE 2.0 mph 3.5 mph 78 % 0.00 in
09:04 74.9 °F 67.6 °F 30.15 in NE 0.6 mph 2.3 mph 78 % 0.00 in
09:14 75.2 °F 67.5 °F 30.15 in NE 0.2 mph 2.3 mph 77 % 0.00 in
09:20 75.5 °F 67.8 °F 30.15 in NE 0.1 mph 3.5 mph 77 % 0.00 in
09:25 75.8 °F 68.1 °F 30.15 in NE 0.5 mph 3.5 mph 77 % 0.00 in
09:30 76.0 °F 67.1 °F 30.15 in ENE 0.4 mph 3.5 mph 74 % 0.00 in
09:35 76.2 °F 68.1 °F 30.15 in ENE 0.1 mph 1.2 mph 76 % 0.00 in
09:40 76.5 °F 67.2 °F 30.16 in NE 1.3 mph 3.5 mph 73 % 0.00 in
09:45 76.8 °F 67.5 °F 30.16 in ENE 1.3 mph 3.5 mph 73 % 0.00 in
09:50 77.4 °F 68.1 °F 30.16 in ENE 0.1 mph 1.2 mph 73 % 0.00 in
09:55 78.4 °F 69.0 °F 30.16 in NE 0.3 mph 2.3 mph 73 % 0.00 in
10:00 79.3 °F 69.1 °F 30.16 in NE 0.5 mph 2.3 mph 71 % 0.00 in
10:05 80.0 °F 68.9 °F 30.16 in ENE 1.7 mph 3.5 mph 69 % 0.00 in
10:10 80.3 °F 69.2 °F 30.16 in ENE 1.4 mph 3.5 mph 69 % 0.00 in
10:15 80.4 °F 68.9 °F 30.16 in NE 1.3 mph 3.5 mph 68 % 0.00 in
10:21 80.3 °F 69.2 °F 30.16 in NE 2.0 mph 5.0 mph 69 % 0.00 in
10:26 80.2 °F 69.5 °F 30.16 in NE 2.0 mph 5.0 mph 70 % 0.00 in
10:31 80.0 °F 68.9 °F 30.16 in NE 1.0 mph 4.0 mph 69 % 0.00 in
10:36 79.9 °F 68.4 °F 30.16 in NE 1.0 mph 5.0 mph 68 % 0.00 in
10:41 79.8 °F 68.3 °F 30.16 in NE 3.3 mph 3.5 mph 68 % 0.00 in
10:46 79.6 °F 68.5 °F 30.16 in NE 1.0 mph 5.0 mph 69 % 0.00 in
10:51 79.8 °F 68.3 °F 30.16 in NE 2.0 mph 3.0 mph 68 % 0.00 in
10:56 80.2 °F 68.7 °F 30.16 in ENE 0.5 mph 2.3 mph 68 % 0.00 in
11:01 81.0 °F 69.0 °F 30.16 in NE 0.1 mph 2.3 mph 67 % 0.00 in
11:06 82.1 °F 69.2 °F 30.16 in NE 1.9 mph 3.5 mph 65 % 0.00 in
11:11 83.0 °F 69.6 °F 30.16 in ENE 1.4 mph 3.5 mph 64 % 0.00 in
11:16 83.7 °F 70.2 °F 30.16 in NE 1.0 mph 2.3 mph 64 % 0.00 in
11:21 84.3 °F 68.4 °F 30.16 in ENE 2.8 mph 4.0 mph 59 % 0.00 in
11:26 84.7 °F 68.8 °F 30.16 in ENE 1.8 mph 3.5 mph 59 % 0.00 in
11:31 84.9 °F 68.5 °F 30.16 in ENE 2.6 mph 4.6 mph 58 % 0.00 in
11:36 85.2 °F 69.7 °F 30.16 in ENE 1.0 mph 3.0 mph 60 % 0.00 in
11:41 85.6 °F 69.1 °F 30.16 in NE 1.5 mph 4.6 mph 58 % 0.00 in
11:47 86.0 °F 69.0 °F 30.16 in NE 2.7 mph 4.6 mph 57 % 0.00 in
11:52 86.0 °F 68.0 °F 30.16 in ENE 3.4 mph 4.6 mph 55 % 0.00 in
11:57 86.1 °F 70.1 °F 30.16 in NE 0.7 mph 3.5 mph 59 % 0.00 in
12:02 86.5 °F 68.4 °F 30.16 in ENE 2.5 mph 3.5 mph 55 % 0.00 in
12:07 86.7 °F 70.2 °F 30.16 in ENE 4.3 mph 6.9 mph 58 % 0.00 in
12:12 87.0 °F 70.4 °F 30.16 in NE 0.7 mph 3.5 mph 58 % 0.00 in
12:17 87.5 °F 71.4 °F 30.16 in ENE 1.7 mph 3.5 mph 59 % 0.00 in
12:22 87.8 °F 69.6 °F 30.15 in ENE 2.9 mph 5.8 mph 55 % 0.00 in
12:27 87.8 °F 68.5 °F 30.15 in ENE 3.1 mph 5.8 mph 53 % 0.00 in
12:32 87.9 °F 67.5 °F 30.15 in East 3.3 mph 8.1 mph 51 % 0.00 in
12:38 87.7 °F 67.3 °F 30.15 in East 3.8 mph 6.9 mph 51 % 0.00 in
12:43 87.5 °F 69.9 °F 30.15 in NE 2.6 mph 5.0 mph 56 % 0.00 in
12:48 87.2 °F 68.0 °F 30.15 in ENE 3.6 mph 5.8 mph 53 % 0.00 in
12:53 87.0 °F 68.3 °F 30.15 in East 1.8 mph 3.5 mph 54 % 0.00 in
12:58 87.1 °F 69.0 °F 30.15 in NNE 0.5 mph 3.5 mph 55 % 0.00 in
13:03 87.3 °F 68.1 °F 30.15 in NE 2.4 mph 4.6 mph 53 % 0.00 in
13:08 87.2 °F 68.5 °F 30.15 in ENE 1.6 mph 2.3 mph 54 % 0.00 in
13:13 87.3 °F 67.5 °F 30.15 in ENE 0.5 mph 4.6 mph 52 % 0.00 in
13:18 87.4 °F 67.6 °F 30.16 in ENE 0.3 mph 3.5 mph 52 % 0.00 in
13:23 87.4 °F 67.1 °F 30.15 in ENE 2.6 mph 5.0 mph 51 % 0.00 in
13:29 87.3 °F 68.1 °F 30.15 in ENE 3.2 mph 4.6 mph 53 % 0.00 in
13:34 87.4 °F 67.1 °F 30.15 in ENE 0.8 mph 3.0 mph 51 % 0.00 in
13:39 87.5 °F 66.0 °F 30.15 in ENE 2.1 mph 4.6 mph 49 % 0.00 in
13:44 87.6 °F 67.2 °F 30.15 in NE 2.6 mph 4.6 mph 51 % 0.00 in
13:49 87.6 °F 67.2 °F 30.15 in ENE 2.6 mph 7.0 mph 51 % 0.00 in
13:54 87.6 °F 66.7 °F 30.15 in ENE 2.4 mph 4.6 mph 50 % 0.00 in
13:59 87.8 °F 67.4 °F 30.15 in NE 2.5 mph 3.5 mph 51 % 0.00 in
14:04 88.1 °F 68.8 °F 30.15 in ENE 1.7 mph 3.5 mph 53 % 0.00 in
14:09 88.2 °F 68.9 °F 30.15 in NE 1.1 mph 2.3 mph 53 % 0.00 in
14:14 88.4 °F 68.0 °F 30.14 in ENE 1.9 mph 3.5 mph 51 % 0.00 in
14:20 88.3 °F 67.3 °F 30.14 in NE 3.9 mph 4.6 mph 50 % 0.00 in
14:25 88.0 °F 67.0 °F 30.14 in East 1.9 mph 9.2 mph 50 % 0.00 in
14:30 87.8 °F 67.4 °F 30.14 in East 2.7 mph 5.8 mph 51 % 0.00 in
14:35 87.8 °F 66.8 °F 30.14 in ENE 1.5 mph 3.5 mph 50 % 0.00 in
14:40 87.6 °F 65.5 °F 30.14 in NE 1.8 mph 3.5 mph 48 % 0.00 in
14:45 87.3 °F 64.0 °F 30.14 in East 5.2 mph 7.0 mph 46 % 0.00 in
14:50 86.8 °F 64.8 °F 30.14 in ENE 2.7 mph 4.6 mph 48 % 0.00 in
14:55 86.4 °F 63.8 °F 30.14 in ENE 3.3 mph 5.0 mph 47 % 0.00 in
15:00 85.9 °F 65.7 °F 30.14 in ENE 2.8 mph 6.9 mph 51 % 0.00 in
15:05 86.1 °F 65.9 °F 30.14 in NE 1.6 mph 3.5 mph 51 % 0.00 in
15:11 86.3 °F 66.0 °F 30.14 in ENE 1.0 mph 3.0 mph 51 % 0.00 in
15:16 86.3 °F 64.9 °F 30.14 in ENE 2.0 mph 6.0 mph 49 % 0.00 in
15:21 86.3 °F 67.2 °F 30.14 in ENE 1.0 mph 3.0 mph 53 % 0.00 in
15:26 86.6 °F 66.9 °F 30.14 in ENE 1.0 mph 3.0 mph 52 % 0.00 in
15:31 87.0 °F 67.8 °F 30.14 in ENE 1.0 mph 3.0 mph 53 % 0.00 in
15:36 87.4 °F 66.4 °F 30.14 in ENE 1.0 mph 2.0 mph 50 % 0.00 in
15:41 87.6 °F 65.5 °F 30.14 in ENE 1.0 mph 2.0 mph 48 % 0.00 in
15:46 87.7 °F 64.3 °F 30.13 in ENE 1.0 mph 3.0 mph 46 % 0.00 in
15:51 87.8 °F 65.6 °F 30.14 in ENE 1.0 mph 2.0 mph 48 % 0.00 in
15:56 87.9 °F 65.8 °F 30.14 in ENE 1.0 mph 2.0 mph 48 % 0.00 in
16:01 88.0 °F 64.0 °F 30.14 in ENE 1.1 mph 2.3 mph 45 % 0.00 in
16:06 88.1 °F 64.1 °F 30.14 in ENE 1.0 mph 2.0 mph 45 % 0.00 in
16:11 88.1 °F 64.7 °F 30.14 in ENE 1.0 mph 2.0 mph 46 % 0.00 in
16:16 88.1 °F 65.3 °F 30.14 in Calm   4.0 mph 47 % 0.00 in
16:21 88.1 °F 65.9 °F 30.14 in ENE 1.0 mph 2.0 mph 48 % 0.00 in
16:26 88.0 °F 65.2 °F 30.14 in Calm   1.0 mph 47 % 0.00 in
16:31 88.0 °F 65.8 °F 30.13 in ENE 1.0 mph 3.0 mph 48 % 0.00 in
16:36 87.9 °F 65.8 °F 30.13 in ENE 1.0 mph 2.0 mph 48 % 0.00 in
16:41 87.8 °F 64.5 °F 30.13 in ENE 1.0 mph 3.0 mph 46 % 0.00 in
16:46 87.8 °F 63.8 °F 30.13 in Calm   2.0 mph 45 % 0.00 in
16:51 87.8 °F 63.2 °F 30.13 in Calm   2.0 mph 44 % 0.00 in
16:56 87.8 °F 66.8 °F 30.13 in East 1.0 mph 4.0 mph 50 % 0.00 in
17:01 87.6 °F 64.9 °F 30.13 in ENE 0.3 mph 2.3 mph 47 % 0.00 in
17:06 87.5 °F 66.0 °F 30.14 in ENE 1.0 mph 2.0 mph 49 % 0.00 in
17:11 87.5 °F 66.0 °F 30.14 in NE 2.0 mph 4.0 mph 49 % 0.00 in
17:16 87.6 °F 66.1 °F 30.14 in ENE 1.0 mph 4.0 mph 49 % 0.00 in
17:21 87.6 °F 63.6 °F 30.14 in Calm   2.0 mph 45 % 0.00 in
17:26 87.8 °F 62.6 °F 30.14 in SE 1.0 mph 5.0 mph 43 % 0.00 in
17:31 87.9 °F 62.6 °F 30.14 in Calm   2.0 mph 43 % 0.00 in
17:36 87.3 °F 62.8 °F 30.14 in Calm   3.0 mph 44 % 0.00 in
17:41 87.0 °F 63.1 °F 30.14 in Calm   1.0 mph 45 % 0.00 in
17:46 87.0 °F 61.8 °F 30.14 in SE 1.0 mph 5.0 mph 43 % 0.00 in
17:51 87.0 °F 61.8 °F 30.14 in SE 2.8 mph 4.6 mph 43 % 0.00 in
17:56 86.7 °F 62.8 °F 30.14 in Calm   3.0 mph 45 % 0.00 in
18:01 86.0 °F 62.8 °F 30.14 in ESE 0.5 mph 3.5 mph 46 % 0.00 in
18:06 85.7 °F 62.5 °F 30.14 in SE 1.1 mph 3.5 mph 46 % 0.00 in
18:11 85.4 °F 62.9 °F 30.13 in SE 3.7 mph 5.8 mph 47 % 0.00 in
18:16 85.2 °F 62.7 °F 30.14 in SE 1.2 mph 2.3 mph 47 % 0.00 in
18:21 85.0 °F 61.3 °F 30.13 in SE 3.0 mph 5.8 mph 45 % 0.00 in
18:26 84.8 °F 62.3 °F 30.13 in SE 0.5 mph 2.3 mph 47 % 0.00 in
18:31 84.5 °F 61.4 °F 30.13 in SE 3.2 mph 4.6 mph 46 % 0.00 in
18:36 84.3 °F 60.6 °F 30.13 in SSE 2.7 mph 5.0 mph 45 % 0.00 in
18:41 84.0 °F 60.4 °F 30.13 in SE 1.8 mph 4.6 mph 45 % 0.00 in
18:46 83.9 °F 60.9 °F 30.13 in SE 0.8 mph 3.5 mph 46 % 0.00 in
18:52 83.6 °F 60.6 °F 30.13 in SE 1.4 mph 3.5 mph 46 % 0.00 in
18:57 83.3 °F 60.4 °F 30.14 in SE 1.4 mph 2.3 mph 46 % 0.00 in
19:02 83.0 °F 60.7 °F 30.13 in SE 1.6 mph 3.5 mph 47 % 0.00 in
19:07 82.7 °F 61.0 °F 30.14 in SE 0.2 mph 1.2 mph 48 % 0.00 in
19:12 82.5 °F 60.8 °F 30.14 in Calm     48 % 0.00 in
19:17 82.3 °F 61.2 °F 30.14 in Calm     49 % 0.00 in
19:22 82.1 °F 61.6 °F 30.14 in Calm     50 % 0.00 in
19:27 81.8 °F 61.3 °F 30.15 in Calm     50 % 0.00 in
19:32 81.5 °F 61.6 °F 30.15 in Calm     51 % 0.00 in
19:37 81.1 °F 61.8 °F 30.15 in Calm     52 % 0.00 in
19:53 79.9 °F 61.8 °F 30.16 in Calm   1.2 mph 54 % 0.00 in
19:58 79.4 °F 61.8 °F 30.16 in SE 0.8 mph 3.5 mph 55 % 0.00 in
20:03 79.0 °F 62.0 °F 30.16 in Calm   1.2 mph 56 % 0.00 in
20:08 78.6 °F 61.6 °F 30.16 in SSE 0.6 mph 3.5 mph 56 % 0.00 in
20:13 78.4 °F 61.9 °F 30.16 in Calm   1.2 mph 57 % 0.00 in
20:18 78.1 °F 62.1 °F 30.17 in SSE 0.1 mph 1.2 mph 58 % 0.00 in
20:23 77.8 °F 61.8 °F 30.17 in SSE 0.1 mph 1.2 mph 58 % 0.00 in
20:28 77.6 °F 62.1 °F 30.17 in Calm     59 % 0.00 in
20:34 77.4 °F 62.4 °F 30.17 in Calm   1.2 mph 60 % 0.00 in
20:39 77.2 °F 62.2 °F 30.18 in Calm   1.2 mph 60 % 0.00 in
20:44 77.1 °F 62.1 °F 30.18 in SSE 0.6 mph 1.2 mph 60 % 0.00 in
20:49 76.9 °F 62.4 °F 30.18 in Calm     61 % 0.00 in
20:54 76.6 °F 62.1 °F 30.18 in Calm     61 % 0.00 in
20:59 76.4 °F 62.0 °F 30.18 in Calm     61 % 0.00 in
21:04 76.1 °F 62.1 °F 30.18 in SSE 0.2 mph 1.2 mph 62 % 0.00 in
21:09 75.8 °F 61.8 °F 30.19 in SSE 0.2 mph 1.2 mph 62 % 0.00 in
21:14 75.5 °F 62.0 °F 30.19 in Calm   1.2 mph 63 % 0.00 in
21:19 75.3 °F 62.3 °F 30.18 in SSE 0.1 mph 1.2 mph 64 % 0.00 in
21:25 75.1 °F 62.1 °F 30.18 in SSE 0.2 mph 1.2 mph 64 % 0.00 in
21:30 74.9 °F 62.3 °F 30.18 in Calm     65 % 0.00 in
21:35 74.7 °F 62.6 °F 30.18 in Calm     66 % 0.00 in
21:40 74.5 °F 62.8 °F 30.18 in SSE 0.1 mph 1.2 mph 67 % 0.00 in
21:45 74.3 °F 62.6 °F 30.18 in Calm     67 % 0.00 in
21:50 74.2 °F 63.0 °F 30.19 in Calm     68 % 0.00 in
21:55 74.0 °F 62.8 °F 30.19 in Calm     68 % 0.00 in
22:00 73.8 °F 63.0 °F 30.19 in Calm     69 % 0.00 in
22:05 73.7 °F 62.9 °F 30.19 in Calm   1.0 mph 69 % 0.00 in
22:10 73.5 °F 63.1 °F 30.19 in Calm     70 % 0.00 in
22:16 73.3 °F 62.9 °F 30.19 in Calm     70 % 0.00 in
22:21 73.1 °F 63.1 °F 30.19 in Calm     71 % 0.00 in
22:26 72.9 °F 63.0 °F 30.19 in Calm     71 % 0.00 in
22:31 72.7 °F 63.6 °F 30.19 in Calm     73 % 0.00 in
22:36 72.5 °F 63.7 °F 30.19 in Calm     74 % 0.00 in
22:40 72.3 °F 63.5 °F 30.19 in Calm     74 % 0.00 in
22:46 72.1 °F 63.7 °F 30.19 in Calm     75 % 0.00 in
22:51 72.0 °F 63.6 °F 30.19 in Calm   1.0 mph 75 % 0.00 in
22:56 71.8 °F 63.5 °F 30.19 in Calm   1.0 mph 75 % 0.00 in
23:01 71.7 °F 64.1 °F 30.19 in Calm   1.2 mph 77 % 0.00 in
23:06 71.6 °F 64.4 °F 30.19 in Calm     78 % 0.00 in
23:11 71.5 °F 64.6 °F 30.19 in Calm     79 % 0.00 in
23:16 71.3 °F 64.8 °F 30.19 in Calm     80 % 0.00 in
23:21 71.3 °F 65.2 °F 30.19 in Calm     81 % 0.00 in
23:26 71.2 °F 65.1 °F 30.19 in Calm     81 % 0.00 in
23:31 71.1 °F 65.3 °F 30.19 in Calm     82 % 0.00 in
23:36 71.1 °F 65.3 °F 30.19 in Calm     82 % 0.00 in
23:41 71.1 °F 65.3 °F 30.19 in Calm     82 % 0.00 in
23:46 71.0 °F 65.6 °F 30.19 in Calm     83 % 0.00 in
23:52 70.9 °F 65.5 °F 30.19 in Calm     83 % 0.00 in
23:57 70.9 °F 65.8 °F 30.19 in Calm     84 % 0.00 in
Crab Meadow Weather
Compliments of Weather Underground - 3 mb

Script developed by  Jim McMurry - jmcmurry@mwt.net Adapted for the template by  Wim van der Kuil - Leuven-Template.eu

Astronomy: It takes Saturn exactly 29.46 years to travel once around the Sun.